x

Long Island - 30 Nm South Of Islip, Ny (44025) Wave Buoy

5:50pm - Thu 28th May 2015 All times are EDT. -4 hours from GMT.

  • Sig Wave height 3.9ft
  • Swell Direction
  • Peak Period 5s
  • Average Period 5s
  • Wind
    20mph, 25mph gusts
  • Sea Temp 58°f
  • Air Temp 62°f
  • Sea Pressure 1020.2mb
  • Long Island - 30 Nm South Of Islip, Ny
  • Long Island - 30 Nm South Of Islip, Ny

More Historic Weather Station data

Upgrade to MSW Pro to gain access to the past 30 days of data for over 8000 Wavebouys and Weather Stations around the globe.

Join Pro

Comparision Forecast

View Surf forecast
   
Thu 05/28 5:50pm 4ft 5s 5s 20 25 mph 1020.2mb 58f 62f
4:50pm 3.5ft 5s 5s 16 20 mph 1020.5mb 58f 62f
3:50pm 3.5ft 6s 5s 16 18 mph 1020.7mb 58f 62f
2:50pm 3.5ft 6s 5s 13
mph
1021.5mb 58f 61f
1:50pm 3.5ft 5s 5s 11
mph
1021.9mb 58f 61f
12:50pm 3.5ft 6s 5s 13 16 mph 1022mb 58f 61f
11:50am 3.5ft 6s 5s 13 16 mph 1022.2mb 58f 61f
10:50am 4ft 6s 5s 13 16 mph 1022.3mb 58f 61f
9:50am 3.5ft 6s 5s 13 16 mph 1022.4mb 57f 61f
8:50am 3.5ft 6s 5s 11
mph
1022.6mb 57f 60f
7:50am 3.5ft 6s 5s 11
mph
1022.3mb 57f 60f
6:50am 3.5ft 6s 5s 9 11 mph 1022.1mb 57f 60f
5:50am 3.5ft 6s 5s 13 16 mph 1021.4mb 57f 60f
4:50am 3.5ft 6s 5s 13 18 mph 1020.8mb 57f 60f
3:50am 3.5ft 6s 5s 16 18 mph 1021mb 57f 60f
2:50am 4.5ft 6s 5s 16 18 mph 1020.8mb 57f 61f
1:50am 4.5ft 6s 5s 20 22 mph 1020.8mb 57f 61f
12:50am 4.5ft 6s 5s 13 18 mph 1021.6mb 57f 61f
Wed 05/27 11:50pm 5ft 6s 5s 16 18 mph 1021.9mb 57f 61f
10:50pm 4.5ft 6s 5s 16 18 mph 1021.9mb 57f 61f
9:50pm 4.5ft 6s 5s 16 20 mph 1021.6mb 57f 62f
8:50pm 4.5ft 6s 5s 16 18 mph 1021.7mb 57f 62f
7:50pm 4.5ft 6s 5s 18 20 mph 1021.3mb 57f 62f
6:50pm 4.5ft 5s 5s 22 25 mph 1020.4mb 57f 62f
5:50pm 4.5ft 6s 4s 20 25 mph 1020.6mb 57f 62f
4:50pm 4.5ft 6s 4s 20 25 mph 1021.1mb 57f 62f
3:50pm 4ft 5s 4s 20 22 mph 1021mb 56f 61f
2:50pm 4ft 5s 4s 20 22 mph 1021.8mb 56f 61f
1:50pm 3.5ft 5s 4s 18 20 mph 1021.9mb 56f 60f
12:50pm 3.5ft 6s 4s 18 20 mph 1022.6mb 56f 60f
11:50am 3.5ft 6s 4s 18 20 mph 1022.8mb 56f 60f
10:50am 3.5ft 6s 4s 16 18 mph 1023mb 56f 60f
9:50am 3.5ft 6s 4s 18 20 mph 1022.7mb 56f 60f
8:50am 3.5ft 6s 4s 13 16 mph 1022.7mb 56f 59f
7:50am 3.5ft 5s 4s 13 16 mph 1022.8mb 55f 60f
6:50am 3.5ft 6s 4s 13 16 mph 1022.5mb 55f 59f
5:50am 3.5ft 6s 4s 11 13 mph 1022.4mb 56f 59f
4:50am 4ft 6s 5s 13 16 mph 1022.2mb 56f 59f
3:50am 4.5ft 6s 5s 16 18 mph 1021.9mb 56f 60f
2:50am 4ft 6s 5s 16
mph
1022mb 56f 60f
1:50am 4.5ft 6s 5s 13 16 mph 1022.2mb 56f 60f
12:50am 4.5ft 5s 5s 16 18 mph 1022.4mb 56f 60f
Tue 05/26 11:50pm 4.5ft 5s 4s 18 20 mph 1022.6mb 56f 61f
10:50pm 4.5ft 5s 4s 20 22 mph 1022.4mb 56f 61f
9:50pm 4ft 5s 4s 20 25 mph 1022.2mb 56f 61f
8:50pm 4ft 5s 4s 20 22 mph 1021.8mb 56f 60f
7:50pm 4ft 5s 4s 20 22 mph 1021.7mb 56f 61f
6:50pm 4ft 5s 4s 20 25 mph 1021.8mb 56f 61f
5:50pm 4.5ft 5s 4s 20 22 mph 1022.1mb 56f 61f
4:50pm 3.5ft 5s 4s 20 25 mph 1022.2mb 56f 61f
3:50pm 3.5ft 5s 4s 20 22 mph 1022.3mb 56f 61f
2:50pm 3ft 5s 4s 18 22 mph 1022.8mb 56f 60f
1:50pm 3ft 5s 4s 18
mph
1023.4mb 56f 60f
12:50pm 3.5ft 5s 4s 16 18 mph 1023.8mb 56f 59f
11:50am 3.5ft 5s 4s 18 20 mph 1023.5mb 55f 59f
10:50am 3ft 5s 4s 18 20 mph 1023.8mb 55f 59f
9:50am 3ft 6s 4s 16 18 mph 1024.2mb 55f 58f
8:50am 3ft 5s 4s 16 18 mph 1024.5mb 55f 58f
7:50am 3ft 6s 4s 16 18 mph 1024.4mb 55f 58f
6:50am 3ft 5s 4s 16 18 mph 1023.9mb 55f 58f
5:50am 3.5ft 5s 4s 16 18 mph 1023.5mb 55f 58f
4:50am 3.5ft 5s 4s 16 18 mph 1023.4mb 55f 59f
3:50am 4ft 6s 4s 16 18 mph 1023mb 55f 59f
2:50am 4ft 6s 4s 18 20 mph 1022.8mb 55f 59f
1:50am 4ft 6s 4s 18 20 mph 1022.9mb 56f 59f
12:50am 4ft 5s 4s 18 20 mph 1023.5mb 56f 59f
Mon 05/25 11:50pm 3.5ft 5s 4s 18 20 mph 1023.8mb 55f 59f
10:50pm 3.5ft 5s 4s 20 22 mph 1023.7mb 55f 60f
9:50pm 4.5ft 5s 4s 20 25 mph 1023.7mb 55f 60f
8:50pm 4.5ft 5s 4s 20 25 mph 1023.2mb 56f 61f
7:50pm 3.5ft 5s 4s 22 27 mph 1023.1mb 56f 61f
6:50pm 4ft 5s 4s 22 27 mph 1023mb 55f 60f
5:50pm 3ft 5s 4s 20 25 mph 1022.9mb 56f 60f
4:50pm 2.5ft 5s 4s 20 22 mph 1022.8mb 56f 60f
3:50pm 2.5ft 5s 4s 18 20 mph 1023.3mb 56f 60f
2:50pm 2ft 4s 4s 16 18 mph 1023.8mb 56f 59f
1:50pm 2ft 5s 4s 13
mph
1024.4mb 56f 59f
12:50pm 2.5ft 5s 4s 13
mph
1024.8mb 56f 58f
11:50am 2ft 5s 4s 13 16 mph 1025mb 55f 58f
10:50am 2ft 5s 4s 13 16 mph 1025.5mb 55f 58f
9:50am 1.6ft 5s 4s 13 16 mph 1025.7mb 55f 58f
8:50am 2ft 4s 4s 11
mph
1025.9mb 55f 58f
7:50am 2ft 5s 4s 11
mph
1025.8mb 55f 57f
6:50am 2ft 4s 4s 9 11 mph 1025.6mb 55f 57f
5:50am 2.5ft 5s 4s 11 13 mph 1025.4mb 55f 57f
4:50am 2.5ft 5s 4s 13 16 mph 1025.1mb 55f 58f
3:50am 2.5ft 5s 4s 13 16 mph 1024.9mb 55f 58f
2:50am 3ft 5s 4s 16 18 mph 1024.7mb 55f 58f
1:50am 3ft 5s 4s 16 18 mph 1024.9mb 55f 58f
12:50am 3.5ft 5s 4s 18 20 mph 1025mb 55f 58f
Sun 05/24 11:50pm 3.5ft 5s 4s 18 20 mph 1025.4mb 55f 59f
10:50pm 4ft 5s 4s 18 20 mph 1025.6mb 55f 59f